Time;durP1;ratioP1;P1;durP2;ratioP2;P2;SDS_P1;SDS_P2;PMS_P1;PMS_P2;Temp;Humidity;BMP_temperature;BMP_pressure;BME280_temperature;BME280_humidity;BME280_pressure;Samples;Min_cycle;Max_cycle;Signal;HPM_P1;HPM_P2
2022/01/27 00:05:20;;;;;;;44.83;21.57;;;;;;;0.97;89.89;101194.95;1755677;81;21104;-74
2022/01/27 00:07:59;;;;;;;41.15;18.70;;;;;;;0.97;89.88;101185.77;1755405;81;21492;-74
2022/01/27 00:10:30;;;;;;;45.50;21.37;;;;;;;0.97;89.91;101176.11;1752874;81;21473;-74
2022/01/27 00:12:48;;;;;;;48.38;22.75;;;;;;;0.97;89.93;101166.08;1753719;81;21523;-74
2022/01/27 00:15:16;;;;;;;46.77;25.27;;;;;;;0.98;89.95;101176.97;1755544;81;21494;-74
2022/01/27 00:17:46;;;;;;;47.67;21.33;;;;;;;0.97;89.95;101172.17;1755421;81;21157;-74
2022/01/27 00:20:12;;;;;;;46.33;21.17;;;;;;;0.98;89.97;101173.03;1755128;81;21003;-74
2022/01/27 00:22:38;;;;;;;46.23;19.42;;;;;;;0.97;89.99;101170.02;1755212;81;21081;-74
2022/01/27 00:25:06;;;;;;;44.27;20.20;;;;;;;0.97;90.01;101169.55;1755558;81;21077;-74
2022/01/27 00:27:33;;;;;;;39.92;18.57;;;;;;;0.98;90.01;101166.47;1755510;81;21026;-74
2022/01/27 00:30:04;;;;;;;45.20;19.77;;;;;;;0.99;90.03;101165.50;1755454;81;21405;-74
2022/01/27 00:32:31;;;;;;;41.80;20.27;;;;;;;1.00;90.04;101171.14;1755112;81;21043;-73
2022/01/27 00:34:58;;;;;;;37.83;18.27;;;;;;;0.99;90.05;101151.91;1755690;81;21514;-74
2022/01/27 00:37:25;;;;;;;38.88;17.60;;;;;;;1.01;90.07;101145.27;1755575;81;21003;-74
2022/01/27 00:39:51;;;;;;;43.60;20.05;;;;;;;1.01;90.09;101141.33;1755568;81;21034;-74
2022/01/27 00:42:17;;;;;;;47.38;21.52;;;;;;;1.02;90.09;101138.24;1755739;81;21013;-74
2022/01/27 00:44:43;;;;;;;41.55;20.68;;;;;;;1.02;90.10;101133.84;1755474;81;21059;-74
2022/01/27 00:47:09;;;;;;;44.58;21.33;;;;;;;1.03;90.11;101140.76;1755208;81;32594;-74
2022/01/27 00:49:36;;;;;;;40.95;19.55;;;;;;;1.03;90.11;101132.88;1755139;81;21031;-73
2022/01/27 00:52:07;;;;;;;43.58;23.07;;;;;;;1.03;90.13;101131.56;1753822;81;21082;-74
2022/01/27 00:54:33;;;;;;;40.03;19.52;;;;;;;1.05;90.13;101136.28;1736005;81;21058;-74
2022/01/27 00:57:11;;;;;;;39.55;17.75;;;;;;;1.05;90.14;101145.47;1725578;83;20967;-74
2022/01/27 00:59:42;;;;;;;40.25;17.80;;;;;;;1.06;90.16;101146.28;1724356;83;21082;-74
2022/01/27 01:02:10;;;;;;;46.55;18.42;;;;;;;1.06;90.15;101144.52;1723826;83;21463;-73
2022/01/27 01:04:33;;;;;;;42.65;19.17;;;;;;;1.05;90.16;101138.05;1723888;83;20936;-74
2022/01/27 01:06:56;;;;;;;40.30;18.00;;;;;;;1.05;90.19;101141.99;1725081;83;21356;-74
2022/01/27 01:14:50;;;;;;;37.95;17.65;;;;;;;1.06;90.17;101127.91;1725106;83;21050;-74
2022/01/27 01:32:50;;;;;;;38.50;18.25;;;;;;;1.08;90.20;101132.16;1725513;83;21121;-74
2022/01/27 01:35:11;;;;;;;37.08;17.98;;;;;;;1.08;90.18;101138.72;1724184;83;21038;-74
2022/01/27 01:37:40;;;;;;;38.00;17.62;;;;;;;1.08;90.19;101128.21;1725488;83;20983;-74
2022/01/27 01:40:13;;;;;;;37.40;16.40;;;;;;;1.08;90.19;101124.73;1725414;83;21014;-74
2022/01/27 01:42:40;;;;;;;36.60;16.87;;;;;;;1.08;90.18;101115.55;1725678;83;20959;-74
2022/01/27 01:45:10;;;;;;;37.85;17.73;;;;;;;1.09;90.18;101125.94;1725291;83;21420;-74
2022/01/27 01:47:36;;;;;;;40.52;17.77;;;;;;;1.10;90.18;101122.39;1740156;81;21011;-74
2022/01/27 01:50:04;;;;;;;40.25;17.10;;;;;;;1.09;90.17;101115.44;1755536;81;21066;-74
2022/01/27 01:52:30;;;;;;;37.95;17.70;;;;;;;1.09;90.17;101102.30;1755601;81;21014;-75
2022/01/27 01:54:56;;;;;;;40.48;17.23;;;;;;;1.09;90.15;101107.55;1755492;81;20976;-74
2022/01/27 01:57:22;;;;;;;41.42;19.87;;;;;;;1.12;90.15;101110.02;1755541;81;21154;-74
2022/01/27 01:59:48;;;;;;;42.38;19.85;;;;;;;1.12;90.15;101104.77;1755665;81;21051;-74
2022/01/27 02:02:14;;;;;;;43.58;21.75;;;;;;;1.13;90.14;101109.53;1749479;81;20978;-74
2022/01/27 02:04:41;;;;;;;43.38;20.75;;;;;;;1.12;90.13;101100.83;1738906;81;21000;-74
2022/01/27 02:07:16;;;;;;;49.60;20.65;;;;;;;1.12;90.13;101107.40;1725540;82;21000;-73
2022/01/27 02:10:06;;;;;;;42.62;19.52;;;;;;;1.13;90.11;101101.19;1724387;82;21253;-74
2022/01/27 02:18:08;;;;;;;31.65;15.95;;;;;;;1.13;90.09;101089.36;1725459;83;21436;-74
2022/01/27 02:20:19;;;;;;;40.38;19.85;;;;;;;1.14;90.08;101095.00;1716555;83;21007;-74
2022/01/27 02:22:45;;;;;;;41.88;19.77;;;;;;;1.15;90.07;101085.34;1725996;83;21147;-74
2022/01/27 02:25:11;;;;;;;44.13;19.90;;;;;;;1.15;90.09;101092.77;1693019;84;20986;-74
2022/01/27 02:27:37;;;;;;;40.80;17.73;;;;;;;1.16;90.08;101084.42;1665150;86;21485;-74
2022/01/27 02:30:05;;;;;;;40.63;17.02;;;;;;;1.16;90.06;101072.59;1689658;84;21557;-74
2022/01/27 02:32:31;;;;;;;34.20;17.23;;;;;;;1.15;90.06;101075.69;1717770;83;21086;-74
2022/01/27 02:34:57;;;;;;;42.33;19.55;;;;;;;1.14;90.05;101071.36;1717909;83;21464;-73
2022/01/27 02:37:23;;;;;;;37.73;17.50;;;;;;;1.15;90.05;101067.81;1717592;83;21516;-74
2022/01/27 02:39:49;;;;;;;36.40;16.73;;;;;;;1.14;90.04;101066.58;1717692;83;21740;-74
2022/01/27 02:42:35;;;;;;;41.53;18.85;;;;;;;1.13;90.03;101068.35;1717691;83;21555;-73
2022/01/27 02:45:11;;;;;;;41.23;17.42;;;;;;;1.13;90.03;101067.04;1717561;83;21082;-73
2022/01/27 02:47:37;;;;;;;40.48;19.23;;;;;;;1.14;90.02;101063.95;1700545;82;21199;-73
2022/01/27 02:50:04;;;;;;;44.30;20.48;;;;;;;1.14;90.05;101055.61;1747395;82;21047;-73
2022/01/27 02:52:30;;;;;;;41.30;18.55;;;;;;;1.14;90.04;101059.55;1747561;82;21130;-73
2022/01/27 02:54:56;;;;;;;43.83;19.10;;;;;;;1.15;90.05;101050.73;1712657;82;21052;-73
2022/01/27 02:57:23;;;;;;;40.03;18.23;;;;;;;1.15;90.04;101053.36;1709963;82;21110;-73
2022/01/27 02:59:49;;;;;;;42.60;19.42;;;;;;;1.15;90.02;101046.80;1747457;82;21174;-74
2022/01/27 03:02:16;;;;;;;44.27;19.73;;;;;;;1.15;90.02;101034.98;1729025;82;21008;-74
2022/01/27 03:04:42;;;;;;;41.48;17.95;;;;;;;1.16;90.03;101034.02;1745821;82;21523;-74
2022/01/27 03:07:08;;;;;;;37.23;15.68;;;;;;;1.18;90.04;101032.63;1693351;83;21059;-74
2022/01/27 03:09:35;;;;;;;41.33;17.85;;;;;;;1.18;90.03;101021.66;1702416;84;21068;-74
2022/01/27 03:12:07;;;;;;;35.45;16.45;;;;;;;1.20;90.04;101025.02;1714327;83;21167;-74
2022/01/27 03:14:32;;;;;;;34.33;17.48;;;;;;;1.21;90.04;101016.20;1694100;84;21539;-74
2022/01/27 03:16:59;;;;;;;38.33;18.07;;;;;;;1.22;90.05;101004.77;1719708;83;21048;-74
2022/01/27 03:19:26;;;;;;;39.83;17.23;;;;;;;1.23;90.06;101006.43;1719398;83;21047;-74
2022/01/27 03:21:53;;;;;;;45.83;21.23;;;;;;;1.23;90.07;101003.80;1684133;84;21060;-74
2022/01/27 03:24:21;;;;;;;44.70;22.00;;;;;;;1.25;90.07;101007.66;1665720;84;22004;-74
2022/01/27 03:26:48;;;;;;;42.08;20.62;;;;;;;1.27;90.06;101011.02;1687504;85;20997;-74
2022/01/27 03:29:16;;;;;;;37.63;18.17;;;;;;;1.27;90.05;101009.25;1713725;83;21185;-74
2022/01/27 03:31:43;;;;;;;37.48;16.10;;;;;;;1.28;90.07;101010.94;1727131;83;21093;-73
2022/01/27 03:34:09;;;;;;;31.57;15.30;;;;;;;1.29;90.08;101019.20;1696435;84;21003;-74
2022/01/27 03:36:35;;;;;;;37.98;15.70;;;;;;;1.31;90.07;101007.27;1700064;83;21158;-74
2022/01/27 03:39:03;;;;;;;38.00;17.50;;;;;;;1.34;90.08;101009.70;1696549;83;21074;-74
2022/01/27 03:41:32;;;;;;;32.65;15.40;;;;;;;1.34;90.07;101000.50;1690582;84;21019;-74
2022/01/27 03:43:57;;;;;;;42.43;19.20;;;;;;;1.35;90.07;100993.86;1698349;83;21599;-74
2022/01/27 03:46:23;;;;;;;43.78;19.80;;;;;;;1.36;90.05;100990.77;1698066;84;20967;-74
2022/01/27 03:48:49;;;;;;;40.23;17.12;;;;;;;1.37;90.08;100998.53;1678912;84;22131;-74
2022/01/27 03:51:15;;;;;;;37.42;17.15;;;;;;;1.38;90.09;100983.14;1710444;83;22144;-74
2022/01/27 03:53:41;;;;;;;41.68;18.92;;;;;;;1.39;90.07;100979.59;1705317;83;21045;-74
2022/01/27 03:56:07;;;;;;;41.05;20.32;;;;;;;1.40;90.07;100968.14;1698224;84;21023;-74
2022/01/27 03:58:34;;;;;;;43.52;20.25;;;;;;;1.41;90.07;100967.18;1713957;83;21071;-74
2022/01/27 04:01:04;;;;;;;43.35;18.27;;;;;;;1.43;90.07;100974.98;1727480;83;20995;-74
2022/01/27 04:03:32;;;;;;;37.55;17.85;;;;;;;1.44;90.05;100966.98;1727342;83;21110;-74
2022/01/27 04:06:05;;;;;;;39.05;18.30;;;;;;;1.45;90.07;100970.45;1716845;82;21567;-73
2022/01/27 04:08:26;;;;;;;41.60;19.75;;;;;;;1.45;90.06;100968.67;1690052;84;21046;-74
2022/01/27 04:10:52;;;;;;;37.53;17.27;;;;;;;1.48;90.06;100975.05;1708239;83;21005;-73
2022/01/27 04:13:18;;;;;;;33.73;15.90;;;;;;;1.48;90.06;100969.79;1698394;83;21132;-74
2022/01/27 04:15:45;;;;;;;29.37;14.38;;;;;;;1.48;90.06;100969.79;1697885;84;21019;-74
2022/01/27 04:18:12;;;;;;;33.75;15.68;;;;;;;1.45;90.04;100958.17;1697973;84;21038;-74
2022/01/27 04:20:39;;;;;;;31.48;15.43;;;;;;;1.44;90.05;100957.78;1671398;84;21074;-74
2022/01/27 04:23:06;;;;;;;37.93;15.32;;;;;;;1.43;90.04;100949.55;1710756;83;21035;-74
2022/01/27 04:25:33;;;;;;;33.67;15.72;;;;;;;1.41;90.02;100938.27;1710595;83;21520;-74
2022/01/27 04:28:04;;;;;;;33.30;15.58;;;;;;;1.41;90.01;100947.94;1710646;83;21024;-74
2022/01/27 04:30:27;;;;;;;32.50;14.90;;;;;;;1.39;90.00;100948.05;1706887;83;21004;-74
2022/01/27 04:32:57;;;;;;;34.38;16.02;;;;;;;1.38;89.99;100943.73;1705798;83;21529;-74
2022/01/27 04:35:24;;;;;;;32.33;16.55;;;;;;;1.36;90.01;100941.69;1684912;84;21068;-74
2022/01/27 04:38:13;;;;;;;33.70;15.58;;;;;;;1.37;90.00;100937.28;1674381;85;22101;-74
2022/01/27 04:40:25;;;;;;;37.60;17.95;;;;;;;1.37;90.01;100929.40;1743483;82;21039;-74
2022/01/27 04:42:58;;;;;;;40.60;20.20;;;;;;;1.35;90.02;100929.48;1719756;82;21482;-74
2022/01/27 04:45:19;;;;;;;30.88;15.70;;;;;;;1.34;90.03;100934.36;1716169;83;21037;-74
2022/01/27 04:47:49;;;;;;;27.98;14.53;;;;;;;1.34;90.04;100923.84;1717438;83;21030;-74
2022/01/27 04:50:12;;;;;;;36.35;14.95;;;;;;;1.33;90.03;100923.50;1717128;83;21248;-74
2022/01/27 04:52:45;;;;;;;30.80;13.32;;;;;;;1.32;90.02;100923.12;1718022;83;21565;-74
2022/01/27 04:55:10;;;;;;;28.23;13.18;;;;;;;1.30;90.03;100921.04;1745169;82;21004;-74
2022/01/27 05:00:21;;;;;;;26.10;14.97;;;;;;;1.27;90.04;100900.22;1838831;77;27913;-74
2022/01/27 05:02:55;;;;;;;23.22;13.28;;;;;;;1.25;90.04;100902.13;1826861;78;20963;-73
2022/01/27 05:05:15;;;;;;;28.10;15.38;;;;;;;1.25;90.06;100903.44;1825342;78;21397;-73
2022/01/27 05:07:41;;;;;;;30.68;14.98;;;;;;;1.22;90.04;100901.01;1790392;80;20974;-74
2022/01/27 05:10:17;;;;;;;27.77;13.53;;;;;;;1.21;90.06;100905.03;1790212;80;20959;-74
2022/01/27 05:12:43;;;;;;;34.98;17.52;;;;;;;1.20;90.07;100909.44;1788724;79;20992;-74
2022/01/27 05:15:05;;;;;;;31.07;15.60;;;;;;;1.20;90.08;100904.65;1789680;79;21023;-73
2022/01/27 05:17:31;;;;;;;28.52;14.65;;;;;;;1.21;90.09;100898.00;1790871;80;21152;-73
2022/01/27 05:19:57;;;;;;;29.77;15.95;;;;;;;1.23;90.11;100901.36;1790502;79;20970;-74
2022/01/27 05:22:23;;;;;;;29.10;14.53;;;;;;;1.22;90.11;100893.12;1790353;79;21535;-74
2022/01/27 05:24:49;;;;;;;25.52;12.85;;;;;;;1.23;90.12;100879.03;1790584;79;21487;-74
2022/01/27 05:27:16;;;;;;;24.30;12.93;;;;;;;1.24;90.13;100866.74;1783459;79;20991;-73
2022/01/27 05:29:42;;;;;;;29.18;14.28;;;;;;;1.22;90.15;100877.37;1780309;80;21592;-74
2022/01/27 05:32:09;;;;;;;26.05;13.78;;;;;;;1.22;90.16;100873.89;1783072;78;21456;-74
2022/01/27 05:34:35;;;;;;;26.73;13.40;;;;;;;1.21;90.17;100869.11;1805928;78;21444;-74
2022/01/27 05:37:01;;;;;;;24.15;12.50;;;;;;;1.21;90.19;100859.91;1778450;79;21600;-74
2022/01/27 05:39:27;;;;;;;29.92;13.40;;;;;;;1.22;90.22;100853.73;1771556;79;21424;-74
2022/01/27 05:41:53;;;;;;;26.02;13.38;;;;;;;1.23;90.23;100846.20;1765048;80;21108;-74
2022/01/27 05:44:19;;;;;;;28.62;12.65;;;;;;;1.23;90.23;100848.00;1808740;78;21684;-74
2022/01/27 05:46:45;;;;;;;31.57;13.48;;;;;;;1.23;90.26;100850.13;1822609;78;21046;-75
2022/01/27 05:49:11;;;;;;;23.38;11.90;;;;;;;1.23;90.25;100833.56;1793381;78;20991;-74
2022/01/27 05:51:37;;;;;;;29.60;12.95;;;;;;;1.22;90.27;100840.59;1790516;79;20990;-74
2022/01/27 05:54:03;;;;;;;30.20;14.30;;;;;;;1.23;90.27;100838.81;1811469;78;21067;-74
2022/01/27 05:56:29;;;;;;;24.18;12.20;;;;;;;1.24;90.30;100826.02;1793678;80;21022;-74
2022/01/27 05:58:55;;;;;;;33.08;15.65;;;;;;;1.22;90.33;100827.45;1788937;79;21348;-74
2022/01/27 06:01:21;;;;;;;29.50;15.10;;;;;;;1.24;90.32;100824.25;1801832;79;20891;-74
2022/01/27 06:03:47;;;;;;;30.30;14.93;;;;;;;1.22;90.34;100827.45;1825834;78;20915;-74
2022/01/27 06:06:13;;;;;;;29.40;13.68;;;;;;;1.20;90.37;100828.02;1792623;80;21163;-74
2022/01/27 06:08:39;;;;;;;24.02;13.40;;;;;;;1.20;90.38;100830.64;1792103;80;21112;-74
2022/01/27 06:11:05;;;;;;;21.77;11.68;;;;;;;1.22;90.39;100830.55;1792945;80;21416;-74
2022/01/27 06:13:31;;;;;;;28.47;13.35;;;;;;;1.21;90.40;100817.89;1792545;79;21031;-74
2022/01/27 06:15:57;;;;;;;23.65;11.03;;;;;;;1.23;90.40;100815.17;1792877;80;20940;-74
2022/01/27 06:18:23;;;;;;;23.42;11.75;;;;;;;1.23;90.41;100815.98;1825227;78;21200;-74
2022/01/27 06:20:49;;;;;;;25.05;12.50;;;;;;;1.24;90.45;100811.58;1792946;80;21002;-74
2022/01/27 06:23:15;;;;;;;24.63;11.35;;;;;;;1.26;90.44;100793.95;1792820;80;21017;-74
2022/01/27 06:25:41;;;;;;;25.32;12.35;;;;;;;1.26;90.45;100805.31;1792893;80;21007;-74
2022/01/27 06:28:07;;;;;;;29.07;14.35;;;;;;;1.27;90.49;100785.95;1822700;78;21033;-74
2022/01/27 06:30:36;;;;;;;25.17;13.03;;;;;;;1.29;90.50;100778.83;1765643;79;21151;-74
2022/01/27 06:33:04;;;;;;;26.05;13.93;;;;;;;1.29;90.51;100783.23;1802757;78;20963;-74
2022/01/27 06:35:31;;;;;;;26.20;12.68;;;;;;;1.28;90.52;100777.14;1792758;80;20986;-75
2022/01/27 06:37:56;;;;;;;24.23;12.13;;;;;;;1.28;90.54;100767.94;1795284;78;20974;-75
2022/01/27 06:40:23;;;;;;;27.62;14.07;;;;;;;1.27;90.55;100766.25;1780673;79;21018;-75
2022/01/27 06:42:49;;;;;;;24.80;10.65;;;;;;;1.29;90.58;100768.32;1812629;78;21065;-75
2022/01/27 06:45:15;;;;;;;19.62;10.23;;;;;;;1.31;90.56;100773.45;1808237;78;20899;-75
2022/01/27 06:47:41;;;;;;;19.23;9.78;;;;;;;1.30;90.57;100769.98;1797120;78;21022;-75
2022/01/27 06:50:07;;;;;;;18.80;9.88;;;;;;;1.31;90.56;100766.42;1799985;78;21452;-75
2022/01/27 06:52:33;;;;;;;30.00;12.45;;;;;;;1.32;90.57;100762.86;1825369;78;20979;-75
2022/01/27 06:55:02;;;;;;;21.20;10.75;;;;;;;1.33;90.59;100759.30;1825278;78;21140;-75
2022/01/27 06:57:28;;;;;;;22.55;10.98;;;;;;;1.35;90.60;100765.75;1823967;78;20987;-74
2022/01/27 06:59:54;;;;;;;27.35;13.43;;;;;;;1.35;90.61;100760.02;1824894;78;21351;-75
2022/01/27 07:02:20;;;;;;;24.25;12.82;;;;;;;1.35;90.63;100760.02;1817670;78;20994;-75
2022/01/27 07:04:46;;;;;;;25.48;13.13;;;;;;;1.35;90.64;100746.04;1790529;80;21021;-74
2022/01/27 07:07:13;;;;;;;26.95;13.75;;;;;;;1.36;90.66;100748.58;1767960;78;21657;-74
2022/01/27 07:09:41;;;;;;;19.55;10.88;;;;;;;1.37;90.66;100752.05;1825307;78;21009;-75
2022/01/27 07:12:09;;;;;;;28.73;15.55;;;;;;;1.37;90.66;100754.68;1771302;79;21062;-75
2022/01/27 07:14:35;;;;;;;22.45;12.07;;;;;;;1.37;90.66;100752.87;1792880;79;21466;-74
2022/01/27 07:17:01;;;;;;;22.32;11.55;;;;;;;1.37;90.68;100747.61;1809602;78;21038;-74
2022/01/27 07:19:27;;;;;;;15.80;8.83;;;;;;;1.38;90.70;100744.05;1796439;79;21169;-75
2022/01/27 07:21:53;;;;;;;18.98;10.48;;;;;;;1.39;90.71;100743.58;1825502;78;20958;-75
2022/01/27 07:24:19;;;;;;;15.35;8.90;;;;;;;1.41;90.71;100739.05;1792028;80;21530;-75
2022/01/27 07:26:45;;;;;;;14.80;7.90;;;;;;;1.41;90.73;100723.28;1777589;79;21029;-75
2022/01/27 07:29:12;;;;;;;23.35;11.83;;;;;;;1.40;90.74;100713.28;1802911;79;21013;-75
2022/01/27 07:31:38;;;;;;;21.75;11.25;;;;;;;1.39;90.75;100710.27;1803863;78;21111;-75
2022/01/27 07:34:04;;;;;;;16.73;8.93;;;;;;;1.39;90.78;100695.82;1761631;80;20994;-75
2022/01/27 07:36:31;;;;;;;21.05;12.13;;;;;;;1.38;90.76;100686.25;1792743;80;21009;-75
2022/01/27 07:39:00;;;;;;;17.65;10.45;;;;;;;1.37;90.78;100688.50;1761430;81;21038;-75
2022/01/27 07:41:26;;;;;;;15.15;9.03;;;;;;;1.35;90.79;100675.95;1792799;80;20990;-75
2022/01/27 07:43:52;;;;;;;11.95;7.03;;;;;;;1.35;90.77;100674.64;1782133;80;21076;-75
2022/01/27 07:46:18;;;;;;;13.93;7.80;;;;;;;1.33;90.79;100675.23;1791124;80;20994;-75
2022/01/27 07:48:44;;;;;;;14.40;8.50;;;;;;;1.33;90.80;100679.64;1791343;80;20911;-75
2022/01/27 07:51:11;;;;;;;12.58;8.45;;;;;;;1.32;90.80;100674.85;1791388;80;21113;-74
2022/01/27 07:53:38;;;;;;;15.35;9.43;;;;;;;1.30;90.82;100674.09;1791084;80;21049;-75
2022/01/27 07:56:04;;;;;;;20.90;9.95;;;;;;;1.29;90.84;100672.44;1791126;80;21483;-75
2022/01/27 07:58:38;;;;;;;28.42;13.90;;;;;;;1.26;90.82;100674.44;1791067;80;21074;-75
2022/01/27 08:01:01;;;;;;;19.32;9.93;;;;;;;1.25;90.83;100663.08;1761165;81;20989;-75
2022/01/27 08:03:27;;;;;;;16.17;9.13;;;;;;;1.24;90.82;100666.64;1765719;80;21017;-75
2022/01/27 08:05:53;;;;;;;13.22;6.62;;;;;;;1.24;90.82;100676.30;1792915;80;21663;-75
2022/01/27 08:08:19;;;;;;;14.90;8.90;;;;;;;1.24;90.83;100654.83;1792611;80;21867;-75
2022/01/27 08:10:45;;;;;;;15.32;8.53;;;;;;;1.23;90.81;100642.62;1759844;81;21799;-75
2022/01/27 08:13:11;;;;;;;13.95;8.38;;;;;;;1.23;90.83;100624.73;1783796;80;21045;-75
2022/01/27 08:15:37;;;;;;;16.25;8.73;;;;;;;1.22;90.82;100626.98;1792331;80;21021;-75
2022/01/27 08:18:04;;;;;;;16.45;8.90;;;;;;;1.20;90.83;100616.57;1778665;80;21128;-74
2022/01/27 08:20:30;;;;;;;15.43;8.50;;;;;;;1.18;90.82;100623.73;1776394;79;22027;-74
2022/01/27 08:22:56;;;;;;;18.85;9.15;;;;;;;1.17;90.82;100632.55;1814289;78;20958;-75
2022/01/27 08:25:23;;;;;;;16.42;9.78;;;;;;;1.17;90.83;100622.04;1792849;79;21045;-75
2022/01/27 08:27:52;;;;;;;18.85;9.18;;;;;;;1.17;90.82;100630.39;1790972;80;20967;-74
2022/01/27 08:30:19;;;;;;;21.05;9.63;;;;;;;1.16;90.83;100630.86;1820010;78;20963;-74
2022/01/27 08:32:58;;;;;;;24.63;12.47;;;;;;;1.16;90.82;100630.86;1792778;80;21152;-75
2022/01/27 08:35:20;;;;;;;39.45;20.95;;;;;;;1.16;90.83;100646.61;1767741;80;20970;-74
2022/01/27 08:37:46;;;;;;;31.12;15.85;;;;;;;1.17;90.84;100657.97;1782137;79;21507;-74
2022/01/27 08:40:14;;;;;;;26.35;13.28;;;;;;;1.17;90.83;100654.88;1803576;79;21002;-74
2022/01/27 08:42:41;;;;;;;25.95;12.53;;;;;;;1.16;90.83;100651.87;1805812;79;21052;-75
2022/01/27 08:45:10;;;;;;;28.87;14.40;;;;;;;1.17;90.83;100653.55;1804821;79;21801;-74
2022/01/27 08:47:36;;;;;;;21.12;12.35;;;;;;;1.19;90.85;100654.31;1799892;78;20986;-74
2022/01/27 08:50:03;;;;;;;24.63;11.78;;;;;;;1.19;90.84;100641.18;1821555;77;20975;-74
2022/01/27 08:52:29;;;;;;;22.48;11.38;;;;;;;1.20;90.85;100646.78;1800709;78;21003;-75
2022/01/27 08:54:55;;;;;;;26.30;13.00;;;;;;;1.20;90.87;100649.41;1796161;78;20891;-75
2022/01/27 08:57:21;;;;;;;26.05;14.15;;;;;;;1.19;90.86;100641.18;1791897;80;21021;-75
2022/01/27 08:59:49;;;;;;;29.90;14.47;;;;;;;1.15;90.85;100632.29;1792361;78;20974;-75
2022/01/27 09:02:15;;;;;;;30.00;15.68;;;;;;;1.09;90.83;100618.27;1791411;80;21069;-75
2022/01/27 09:04:41;;;;;;;29.87;14.30;;;;;;;1.09;90.84;100629.59;1760541;81;21020;-75
2022/01/27 09:07:07;;;;;;;29.45;14.98;;;;;;;1.07;90.82;100622.30;1813858;78;21010;-75
2022/01/27 09:09:33;;;;;;;29.25;13.60;;;;;;;1.04;90.83;100621.20;1791559;78;21828;-74
2022/01/27 09:12:00;;;;;;;29.37;14.38;;;;;;;1.02;90.81;100612.60;1805314;77;20978;-75
2022/01/27 09:14:31;;;;;;;28.25;15.53;;;;;;;1.00;90.81;100614.47;1791934;79;21586;-75
2022/01/27 09:16:58;;;;;;;28.85;13.50;;;;;;;1.02;90.81;100608.66;1788255;80;21030;-74
2022/01/27 09:19:26;;;;;;;34.78;17.60;;;;;;;1.02;90.79;100603.88;1791642;80;21495;-74
2022/01/27 09:21:54;;;;;;;28.83;13.55;;;;;;;1.02;90.79;100601.25;1785536;80;21161;-75
2022/01/27 09:24:27;;;;;;;30.92;14.50;;;;;;;1.02;90.79;100598.16;1772484;80;21002;-75
2022/01/27 09:29:15;;;;;;;29.20;13.65;;;;;;;0.97;90.77;100583.18;1791677;80;20840;-75
2022/01/27 09:31:41;;;;;;;25.35;11.30;;;;;;;0.91;90.79;100589.70;1810249;78;21112;-75
2022/01/27 09:34:08;;;;;;;27.77;12.30;;;;;;;0.89;90.78;100572.34;1797968;78;21778;-75
2022/01/27 09:36:34;;;;;;;31.42;13.30;;;;;;;0.85;90.78;100569.09;1793867;78;21021;-75
2022/01/27 09:39:00;;;;;;;30.20;13.53;;;;;;;0.81;90.78;100565.48;1791393;80;21100;-71
2022/01/27 09:41:27;;;;;;;33.60;15.08;;;;;;;0.76;90.77;100567.57;1791771;80;20970;-71
2022/01/27 09:43:54;;;;;;;37.80;17.20;;;;;;;0.71;90.76;100562.63;1804128;78;21064;-71
2022/01/27 09:46:21;;;;;;;40.15;16.62;;;;;;;0.70;90.77;100558.81;1817032;78;21162;-71
2022/01/27 09:48:49;;;;;;;31.73;14.20;;;;;;;0.67;90.76;100552.45;1824372;78;21488;-71
2022/01/27 09:53:49;;;;;;;28.60;13.00;;;;;;;0.68;90.75;100555.43;1790843;80;21026;-71
2022/01/27 09:56:15;;;;;;;28.35;14.00;;;;;;;0.72;90.77;100547.25;1781876;78;21553;-71
2022/01/27 09:58:41;;;;;;;26.50;12.37;;;;;;;0.75;90.75;100538.33;1809423;77;21872;-71
2022/01/27 10:01:07;;;;;;;25.20;11.70;;;;;;;0.80;90.75;100539.71;1768399;80;21598;-71
2022/01/27 10:03:33;;;;;;;30.52;14.58;;;;;;;0.84;90.76;100524.59;1790573;78;21459;-71
2022/01/27 10:06:14;;;;;;;30.30;13.18;;;;;;;0.89;90.78;100519.38;1768347;78;21438;-71
2022/01/27 10:08:42;;;;;;;30.08;14.60;;;;;;;0.94;90.78;100520.38;1761643;80;21005;-71
2022/01/27 10:11:18;;;;;;;37.53;15.30;;;;;;;0.97;90.79;100530.67;1780305;80;21825;-71
2022/01/27 10:13:46;;;;;;;30.48;13.70;;;;;;;1.01;90.80;100516.39;1792023;80;21029;-71
2022/01/27 10:16:29;;;;;;;29.27;14.95;;;;;;;1.04;90.80;100523.20;1789721;78;21034;-71
2022/01/27 10:19:09;;;;;;;24.57;11.25;;;;;;;1.06;90.80;100532.65;1787458;78;21075;-72
2022/01/27 10:21:35;;;;;;;27.00;11.80;;;;;;;1.07;90.83;100515.95;1794255;78;21045;-71
2022/01/27 10:24:25;;;;;;;25.60;12.85;;;;;;;1.07;90.83;100505.45;1791643;78;21077;-71
2022/01/27 10:27:27;;;;;;;30.23;13.50;;;;;;;1.06;90.81;100512.95;1812699;78;21015;-71
2022/01/27 10:32:44;;;;;;;32.88;16.15;;;;;;;1.10;90.82;100499.98;1786296;79;21050;-71
2022/01/27 10:35:12;;;;;;;29.50;15.50;;;;;;;1.12;90.83;100503.36;1825893;78;21533;-71
2022/01/27 10:38:03;;;;;;;28.40;14.15;;;;;;;1.13;90.84;100495.83;1768724;81;21179;-71
2022/01/27 10:40:37;;;;;;;28.55;12.95;;;;;;;1.15;90.85;100493.95;1768714;81;21050;-71
2022/01/27 10:43:13;;;;;;;25.20;12.63;;;;;;;1.17;90.87;100497.29;1805422;78;21013;-71
2022/01/27 10:46:04;;;;;;;27.02;12.47;;;;;;;1.17;90.85;100494.66;1812809;78;21081;-71
2022/01/27 10:48:32;;;;;;;22.17;12.10;;;;;;;1.17;90.86;100479.38;1768464;81;21082;-71
2022/01/27 10:51:15;;;;;;;22.10;11.18;;;;;;;1.15;90.86;100479.50;1822503;78;21329;-71
2022/01/27 10:54:07;;;;;;;26.07;13.03;;;;;;;1.14;90.87;100469.94;1765064;81;21017;-71
2022/01/27 10:56:38;;;;;;;23.67;11.12;;;;;;;1.12;90.85;100479.72;1822424;78;21026;-71
2022/01/27 10:59:12;;;;;;;19.25;10.32;;;;;;;1.09;90.85;100478.59;1770301;79;20994;-72
2022/01/27 11:01:45;;;;;;;27.13;13.45;;;;;;;1.05;90.85;100479.78;1773657;80;21579;-71
2022/01/27 11:04:13;;;;;;;27.58;13.45;;;;;;;1.06;90.85;100475.34;1781027;80;21798;-72
2022/01/27 11:06:58;;;;;;;33.30;17.37;;;;;;;1.05;90.86;100475.84;1778033;80;21059;-72
2022/01/27 11:09:27;;;;;;;24.05;14.05;;;;;;;1.04;90.87;100471.53;1777080;79;21543;-72
2022/01/27 11:11:55;;;;;;;24.90;12.93;;;;;;;1.04;90.88;100466.28;1777128;80;21036;-71
2022/01/27 11:14:24;;;;;;;20.30;12.50;;;;;;;1.05;90.87;100470.59;1765488;80;21047;-72
2022/01/27 11:16:51;;;;;;;27.82;17.25;;;;;;;1.06;90.89;100469.62;1758365;80;21203;-72
2022/01/27 11:19:23;;;;;;;22.15;12.07;;;;;;;1.07;90.88;100458.19;1758326;81;21051;-72
2022/01/27 11:21:49;;;;;;;28.02;11.85;;;;;;;1.07;90.87;100444.21;1771229;80;21477;-72
2022/01/27 11:24:18;;;;;;;20.48;10.43;;;;;;;1.08;90.88;100446.74;1771419;80;21003;-72
2022/01/27 11:26:44;;;;;;;20.62;10.70;;;;;;;1.11;90.91;100435.17;1771601;79;21051;-72
2022/01/27 11:29:12;;;;;;;24.98;13.20;;;;;;;1.12;90.91;100436.39;1788402;80;21932;-72
2022/01/27 11:32:08;;;;;;;41.50;16.15;;;;;;;1.13;90.93;100434.11;1778458;80;21083;-72
2022/01/27 11:34:51;;;;;;;25.23;14.23;;;;;;;1.16;90.95;100432.57;1758395;81;21027;-72
2022/01/27 11:37:34;;;;;;;24.25;12.33;;;;;;;1.19;90.93;100417.94;1764788;80;21082;-72
2022/01/27 11:40:06;;;;;;;26.62;14.55;;;;;;;1.22;90.95;100416.87;1762855;80;21083;-71
2022/01/27 11:42:50;;;;;;;29.30;14.58;;;;;;;1.27;90.98;100414.27;1765525;80;22017;-71
2022/01/27 11:45:29;;;;;;;21.17;12.28;;;;;;;1.29;91.01;100411.06;1738894;80;21028;-71
2022/01/27 11:48:15;;;;;;;21.75;11.65;;;;;;;1.31;91.00;100409.16;1787271;80;21019;-71
2022/01/27 11:50:55;;;;;;;20.32;10.82;;;;;;;1.35;91.01;100404.05;1771410;80;21003;-72
2022/01/27 11:53:48;;;;;;;23.62;11.53;;;;;;;1.40;91.02;100405.88;1787411;80;21054;-71
2022/01/27 11:56:36;;;;;;;19.60;10.25;;;;;;;1.45;91.04;100397.17;1787570;80;21516;-72
2022/01/27 11:59:01;;;;;;;18.75;10.58;;;;;;;1.50;91.06;100395.53;1784744;80;21055;-72
2022/01/27 12:01:34;;;;;;;20.08;11.57;;;;;;;1.54;91.07;100388.27;1794208;79;21022;-72
2022/01/27 12:04:12;;;;;;;18.77;11.75;;;;;;;1.54;91.09;100386.48;1801951;79;21038;-71